Time;durP1;ratioP1;P1;durP2;ratioP2;P2;SDS_P1;SDS_P2;PMS_P1;PMS_P2;Temp;Humidity;BMP_temperature;BMP_pressure;BME280_temperature;BME280_humidity;BME280_pressure;Samples;Min_cycle;Max_cycle;Signal;HPM_P1;HPM_P2
2022/12/31 00:00:41;;;;;;;;;;;11.30;99.90;;;;;;4998351;28;20008;-77
2022/12/31 00:03:09;;;;;;;;;;;11.30;99.90;;;;;;4997708;28;19941;-78
2022/12/31 00:05:36;;;;;;;;;;;11.30;99.90;;;;;;5003473;28;19936;-78
2022/12/31 00:08:02;;;;;;;;;;;11.30;99.90;;;;;;5000674;28;19940;-78
2022/12/31 00:10:29;;;;;;;;;;;11.40;99.90;;;;;;5000504;28;19987;-78
2022/12/31 00:12:57;;;;;;;;;;;11.40;99.90;;;;;;5001760;28;20069;-78
2022/12/31 00:15:23;;;;;;;;;;;11.40;99.90;;;;;;4999418;28;20019;-78
2022/12/31 00:17:50;;;;;;;;;;;11.40;99.90;;;;;;5002940;28;19941;-78
2022/12/31 00:20:17;;;;;;;;;;;11.40;99.90;;;;;;5001836;28;19964;-78
2022/12/31 00:22:43;;;;;;;;;;;11.40;99.90;;;;;;5006660;28;20862;-77
2022/12/31 00:25:10;;;;;;;;;;;11.40;99.90;;;;;;5002192;28;19929;-78
2022/12/31 00:27:36;;;;;;;;;;;11.40;99.90;;;;;;5009411;28;20719;-77
2022/12/31 00:30:05;;;;;;;;;;;11.40;99.90;;;;;;5003587;28;19983;-78
2022/12/31 00:32:31;;;;;;;;;;;11.40;99.90;;;;;;4996894;28;19948;-78
2022/12/31 00:34:58;;;;;;;;;;;11.40;99.90;;;;;;5003681;28;20013;-78
2022/12/31 00:37:24;;;;;;;;;;;11.40;99.90;;;;;;5000371;28;20428;-78
2022/12/31 00:39:51;;;;;;;;;;;11.50;99.90;;;;;;4997053;28;20073;-78
2022/12/31 00:42:17;;;;;;;;;;;11.50;99.90;;;;;;5005386;28;19936;-78
2022/12/31 00:44:44;;;;;;;;;;;11.50;99.90;;;;;;5006977;28;19929;-78
2022/12/31 00:47:12;;;;;;;;;;;11.50;99.90;;;;;;5006219;28;19936;-78
2022/12/31 00:49:38;;;;;;;;;;;11.50;99.90;;;;;;5006272;28;20211;-78
2022/12/31 00:52:05;;;;;;;;;;;11.50;99.90;;;;;;5012999;28;19936;-77
2022/12/31 00:54:32;;;;;;;;;;;11.50;99.90;;;;;;5008362;28;19960;-77
2022/12/31 00:56:58;;;;;;;;;;;11.60;99.90;;;;;;5007837;28;19930;-78
2022/12/31 00:59:25;;;;;;;;;;;11.60;99.90;;;;;;5010239;28;19926;-78
2022/12/31 01:01:51;;;;;;;;;;;11.60;99.90;;;;;;5009661;28;19933;-77
2022/12/31 01:04:20;;;;;;;;;;;11.60;99.90;;;;;;5016213;28;19934;-78
2022/12/31 01:06:47;;;;;;;;;;;11.60;99.90;;;;;;5010318;28;19940;-77
2022/12/31 01:09:14;;;;;;;;;;;11.60;99.90;;;;;;5011958;28;20417;-77
2022/12/31 01:11:41;;;;;;;;;;;11.60;99.90;;;;;;5010752;28;19937;-77
2022/12/31 01:14:10;;;;;;;;;;;11.60;99.90;;;;;;5000114;28;20389;-77
2022/12/31 01:16:37;;;;;;;;;;;11.60;99.90;;;;;;4998511;28;20040;-78
2022/12/31 01:19:05;;;;;;;;;;;11.70;99.90;;;;;;5001843;28;20762;-78
2022/12/31 01:21:34;;;;;;;;;;;11.70;99.90;;;;;;4998699;28;19940;-78
2022/12/31 01:24:01;;;;;;;;;;;11.70;99.90;;;;;;4999005;28;19937;-78
2022/12/31 01:26:28;;;;;;;;;;;11.70;99.90;;;;;;5000469;28;21993;-78
2022/12/31 01:28:54;;;;;;;;;;;11.70;99.90;;;;;;4996009;28;20459;-78
2022/12/31 01:31:22;;;;;;;;;;;11.70;99.90;;;;;;4999022;28;19933;-78
2022/12/31 01:33:50;;;;;;;;;;;11.70;99.90;;;;;;5001794;28;19933;-78
2022/12/31 01:36:18;;;;;;;;;;;11.70;99.90;;;;;;4994925;28;19987;-78
2022/12/31 01:38:46;;;;;;;;;;;11.70;99.90;;;;;;4997086;28;19930;-77
2022/12/31 01:41:14;;;;;;;;;;;11.80;99.90;;;;;;4995670;28;19936;-78
2022/12/31 01:43:42;;;;;;;;;;;11.70;99.90;;;;;;4997848;28;19940;-78
2022/12/31 01:46:10;;;;;;;;;;;11.70;99.90;;;;;;4994191;28;19930;-78
2022/12/31 01:48:36;;;;;;;;;;;11.80;99.90;;;;;;4994971;28;19933;-78
2022/12/31 01:51:04;;;;;;;;;;;11.80;99.90;;;;;;4997453;28;21351;-78
2022/12/31 01:53:31;;;;;;;;;;;11.80;99.90;;;;;;4998184;28;19929;-78
2022/12/31 01:55:59;;;;;;;;;;;11.80;99.90;;;;;;4995422;28;19933;-77
2022/12/31 01:58:27;;;;;;;;;;;11.80;99.90;;;;;;4998455;28;19936;-78
2022/12/31 02:00:54;;;;;;;;;;;11.80;99.90;;;;;;4994704;28;19953;-77
2022/12/31 02:03:22;;;;;;;;;;;11.80;99.90;;;;;;4992354;28;19940;-77
2022/12/31 02:05:51;;;;;;;;;;;11.80;99.90;;;;;;4995858;28;19937;-78
2022/12/31 02:08:18;;;;;;;;;;;11.80;99.90;;;;;;4997576;28;19933;-77
2022/12/31 02:10:44;;;;;;;;;;;11.80;99.90;;;;;;4995017;28;19933;-77
2022/12/31 02:13:12;;;;;;;;;;;11.80;99.90;;;;;;4998385;28;19938;-78
2022/12/31 02:15:45;;;;;;;;;;;11.80;99.90;;;;;;4994021;28;20654;-77
2022/12/31 02:18:16;;;;;;;;;;;11.80;99.90;;;;;;4996898;28;19930;-78
2022/12/31 02:20:53;;;;;;;;;;;11.90;99.90;;;;;;4991909;28;19941;-78
2022/12/31 02:23:44;;;;;;;;;;;11.90;99.90;;;;;;4999037;28;20389;-77
2022/12/31 02:26:18;;;;;;;;;;;11.90;99.90;;;;;;4997958;28;19988;-78
2022/12/31 02:28:56;;;;;;;;;;;11.90;99.90;;;;;;4996944;28;19929;-78
2022/12/31 02:31:25;;;;;;;;;;;11.90;99.90;;;;;;4994112;28;19938;-78
2022/12/31 02:33:54;;;;;;;;;;;11.90;99.90;;;;;;4997790;28;19999;-78
2022/12/31 02:36:23;;;;;;;;;;;11.90;99.90;;;;;;5000395;28;20062;-77
2022/12/31 02:38:50;;;;;;;;;;;11.90;99.90;;;;;;4994768;28;19929;-78
2022/12/31 02:43:58;;;;;;;;;;;12.00;99.90;;;;;;4986099;28;19952;-77
2022/12/31 02:46:29;;;;;;;;;;;12.00;99.90;;;;;;4991565;28;20381;-78
2022/12/31 02:48:58;;;;;;;;;;;12.00;99.90;;;;;;4996211;28;19940;-78
2022/12/31 02:51:32;;;;;;;;;;;12.00;99.90;;;;;;4998750;28;19929;-77
2022/12/31 02:54:11;;;;;;;;;;;12.00;99.90;;;;;;4997430;28;19933;-78
2022/12/31 02:56:40;;;;;;;;;;;12.00;99.90;;;;;;4998036;28;20007;-78
2022/12/31 03:02:18;;;;;;;;;;;12.10;99.90;;;;;;4990646;28;19936;-78
2022/12/31 03:04:46;;;;;;;;;;;12.10;99.90;;;;;;4993406;28;19969;-78
2022/12/31 03:07:14;;;;;;;;;;;12.10;99.90;;;;;;4996516;28;19933;-78
2022/12/31 03:09:41;;;;;;;;;;;12.10;99.90;;;;;;4993872;28;19940;-78
2022/12/31 03:14:53;;;;;;;;;;;12.10;99.90;;;;;;4996493;28;19936;-78
2022/12/31 03:17:21;;;;;;;;;;;12.20;99.90;;;;;;4995662;28;19976;-76
2022/12/31 03:22:32;;;;;;;;;;;12.20;99.90;;;;;;4996672;28;19932;-77
2022/12/31 03:27:46;;;;;;;;;;;12.20;99.90;;;;;;5003171;28;20040;-78
2022/12/31 03:30:13;;;;;;;;;;;12.20;99.90;;;;;;5000401;28;19937;-78
2022/12/31 03:32:41;;;;;;;;;;;12.20;99.90;;;;;;4995556;28;19961;-77
2022/12/31 03:35:09;;;;;;;;;;;12.20;99.90;;;;;;4999099;28;19933;-78
2022/12/31 03:37:35;;;;;;;;;;;12.30;99.90;;;;;;4998206;28;19933;-78
2022/12/31 03:40:02;;;;;;;;;;;12.30;99.90;;;;;;4994858;28;19929;-78
2022/12/31 03:42:28;;;;;;;;;;;12.30;99.90;;;;;;4996852;28;20500;-77
2022/12/31 03:44:55;;;;;;;;;;;12.30;99.90;;;;;;4997631;28;19929;-77
2022/12/31 03:47:22;;;;;;;;;;;12.30;99.90;;;;;;4993152;28;19933;-77
2022/12/31 03:49:49;;;;;;;;;;;12.30;99.90;;;;;;5003242;28;19933;-77
2022/12/31 03:52:16;;;;;;;;;;;12.40;99.90;;;;;;5002998;28;19952;-78
2022/12/31 03:54:42;;;;;;;;;;;12.40;99.90;;;;;;4998783;28;20526;-77
2022/12/31 03:57:09;;;;;;;;;;;12.40;99.90;;;;;;4997906;28;19929;-77
2022/12/31 03:59:36;;;;;;;;;;;12.40;99.90;;;;;;5005212;28;19937;-77
2022/12/31 04:02:02;;;;;;;;;;;12.40;99.90;;;;;;4999343;28;19937;-77
2022/12/31 04:04:29;;;;;;;;;;;12.40;99.90;;;;;;5000810;28;19936;-77
2022/12/31 04:06:56;;;;;;;;;;;12.40;99.90;;;;;;4999877;28;19933;-77
2022/12/31 04:09:23;;;;;;;;;;;12.40;99.90;;;;;;4996639;28;19929;-77
2022/12/31 04:11:50;;;;;;;;;;;12.40;99.90;;;;;;4997789;28;20480;-77
2022/12/31 04:14:16;;;;;;;;;;;12.40;99.90;;;;;;5000804;28;19936;-78
2022/12/31 04:16:43;;;;;;;;;;;12.50;99.90;;;;;;5002353;28;20008;-77
2022/12/31 04:19:10;;;;;;;;;;;12.50;99.90;;;;;;4999072;28;20353;-77
2022/12/31 04:21:36;;;;;;;;;;;12.50;99.90;;;;;;4996800;28;19930;-78
2022/12/31 04:24:05;;;;;;;;;;;12.50;99.90;;;;;;4996420;28;19936;-77
2022/12/31 04:26:32;;;;;;;;;;;12.50;99.90;;;;;;4998836;28;19929;-77
2022/12/31 04:28:58;;;;;;;;;;;12.60;99.90;;;;;;4996741;28;19933;-77
2022/12/31 04:31:25;;;;;;;;;;;12.60;99.90;;;;;;4999228;28;19929;-78
2022/12/31 04:33:51;;;;;;;;;;;12.60;99.90;;;;;;5000747;28;20345;-77
2022/12/31 04:36:18;;;;;;;;;;;12.60;99.90;;;;;;5002962;28;19929;-77
2022/12/31 04:38:44;;;;;;;;;;;12.60;99.90;;;;;;4999104;28;19934;-77
2022/12/31 04:41:19;;;;;;;;;;;12.60;99.90;;;;;;4993490;28;19952;-77
2022/12/31 04:43:46;;;;;;;;;;;12.60;99.90;;;;;;4996262;28;19945;-78
2022/12/31 04:46:13;;;;;;;;;;;12.70;99.90;;;;;;4993140;28;19941;-77
2022/12/31 04:48:40;;;;;;;;;;;12.70;99.90;;;;;;4994023;28;19933;-78
2022/12/31 04:51:06;;;;;;;;;;;12.70;99.90;;;;;;4993112;28;19988;-77
2022/12/31 04:53:33;;;;;;;;;;;12.70;99.90;;;;;;4997851;28;19933;-77
2022/12/31 04:55:59;;;;;;;;;;;12.80;99.90;;;;;;4996368;28;19929;-78
2022/12/31 04:58:28;;;;;;;;;;;12.80;99.90;;;;;;5000948;28;19933;-78
2022/12/31 05:00:55;;;;;;;;;;;12.80;99.90;;;;;;4995627;28;20809;-77
2022/12/31 05:03:22;;;;;;;;;;;12.80;99.90;;;;;;4997330;28;19940;-77
2022/12/31 05:05:49;;;;;;;;;;;12.80;99.90;;;;;;4998306;28;20329;-77
2022/12/31 05:08:16;;;;;;;;;;;12.80;99.90;;;;;;4997708;28;19934;-78
2022/12/31 05:10:44;;;;;;;;;;;12.80;99.90;;;;;;4996864;28;19996;-78
2022/12/31 05:13:11;;;;;;;;;;;12.90;99.90;;;;;;4998433;28;20699;-78
2022/12/31 05:15:38;;;;;;;;;;;12.90;99.90;;;;;;4993298;28;19933;-77
2022/12/31 05:18:05;;;;;;;;;;;12.90;99.90;;;;;;4993279;28;19929;-78
2022/12/31 05:20:32;;;;;;;;;;;12.90;99.90;;;;;;5001011;28;19928;-78
2022/12/31 05:22:59;;;;;;;;;;;12.90;99.90;;;;;;4997970;28;19944;-78
2022/12/31 05:25:25;;;;;;;;;;;12.90;99.90;;;;;;4995356;28;19936;-78
2022/12/31 05:27:52;;;;;;;;;;;13.00;99.90;;;;;;4993781;28;21123;-78
2022/12/31 05:30:18;;;;;;;;;;;12.90;99.90;;;;;;5001066;28;21104;-78
2022/12/31 05:32:47;;;;;;;;;;;13.00;99.90;;;;;;5001833;28;19937;-77
2022/12/31 05:35:13;;;;;;;;;;;13.00;99.90;;;;;;5000646;28;19929;-78
2022/12/31 05:37:40;;;;;;;;;;;13.00;99.90;;;;;;4999651;28;20464;-77
2022/12/31 05:40:07;;;;;;;;;;;13.00;99.90;;;;;;4997415;28;19937;-78
2022/12/31 05:42:33;;;;;;;;;;;13.00;99.90;;;;;;4997056;28;19936;-77
2022/12/31 05:45:00;;;;;;;;;;;13.00;99.90;;;;;;4998816;28;19940;-77
2022/12/31 05:47:26;;;;;;;;;;;13.00;99.90;;;;;;4995511;28;19937;-77
2022/12/31 05:49:54;;;;;;;;;;;13.00;99.90;;;;;;5002324;28;19940;-77
2022/12/31 05:52:21;;;;;;;;;;;13.10;99.90;;;;;;5000181;28;19933;-78
2022/12/31 05:54:47;;;;;;;;;;;13.10;99.90;;;;;;5003457;28;19929;-78
2022/12/31 05:57:14;;;;;;;;;;;13.10;99.90;;;;;;4994422;28;19944;-78
2022/12/31 05:59:41;;;;;;;;;;;13.10;99.90;;;;;;4999434;28;19937;-77
2022/12/31 06:02:07;;;;;;;;;;;13.10;99.90;;;;;;4996196;28;19930;-78
2022/12/31 06:04:34;;;;;;;;;;;13.10;99.90;;;;;;4994800;28;19929;-78
2022/12/31 06:07:01;;;;;;;;;;;13.10;99.90;;;;;;4996970;28;19937;-78
2022/12/31 06:09:28;;;;;;;;;;;13.10;99.90;;;;;;4998575;28;20323;-77
2022/12/31 06:11:54;;;;;;;;;;;13.10;99.90;;;;;;4994979;28;19934;-78
2022/12/31 06:14:21;;;;;;;;;;;13.20;99.90;;;;;;5000646;28;19937;-79
2022/12/31 06:16:48;;;;;;;;;;;13.20;99.90;;;;;;4994807;28;19938;-77
2022/12/31 06:19:14;;;;;;;;;;;13.20;99.90;;;;;;4998802;28;19975;-78
2022/12/31 06:21:41;;;;;;;;;;;13.20;99.90;;;;;;4999787;28;19929;-78
2022/12/31 06:24:09;;;;;;;;;;;13.20;99.90;;;;;;5005271;28;19932;-78
2022/12/31 06:26:36;;;;;;;;;;;13.20;99.90;;;;;;5000438;28;19937;-78
2022/12/31 06:29:03;;;;;;;;;;;13.20;99.90;;;;;;4998076;28;20334;-78
2022/12/31 06:31:29;;;;;;;;;;;13.20;99.90;;;;;;4994167;28;19960;-78
2022/12/31 06:33:56;;;;;;;;;;;13.20;99.90;;;;;;4998533;28;19929;-77
2022/12/31 06:36:22;;;;;;;;;;;13.20;99.90;;;;;;4997635;28;19996;-78
2022/12/31 06:38:49;;;;;;;;;;;13.20;99.90;;;;;;5001077;28;19941;-77
2022/12/31 06:41:18;;;;;;;;;;;13.20;99.90;;;;;;5000168;28;19941;-78
2022/12/31 06:43:44;;;;;;;;;;;13.20;99.90;;;;;;5000948;28;20038;-78
2022/12/31 06:46:12;;;;;;;;;;;13.20;99.90;;;;;;4996478;28;20448;-78
2022/12/31 06:48:40;;;;;;;;;;;13.20;99.90;;;;;;4997913;28;19933;-77
2022/12/31 06:51:08;;;;;;;;;;;13.20;99.90;;;;;;4997499;28;19944;-77
2022/12/31 06:53:34;;;;;;;;;;;13.20;99.90;;;;;;4999207;28;20661;-78
2022/12/31 06:56:04;;;;;;;;;;;13.30;99.90;;;;;;4998815;28;20060;-78
2022/12/31 06:58:33;;;;;;;;;;;13.20;99.90;;;;;;4999858;28;19936;-78
2022/12/31 07:01:02;;;;;;;;;;;13.20;99.90;;;;;;5002537;28;19929;-78
2022/12/31 07:03:33;;;;;;;;;;;13.20;99.90;;;;;;4998008;28;20567;-78
2022/12/31 07:06:02;;;;;;;;;;;13.30;99.90;;;;;;4997323;28;19938;-77
2022/12/31 07:08:36;;;;;;;;;;;13.20;99.90;;;;;;4998404;28;19960;-78
2022/12/31 07:11:04;;;;;;;;;;;13.20;99.90;;;;;;4996003;28;19929;-77
2022/12/31 07:13:46;;;;;;;;;;;13.20;99.90;;;;;;5002908;28;19929;-78
2022/12/31 07:16:20;;;;;;;;;;;13.20;99.90;;;;;;4990796;28;19936;-77
2022/12/31 07:18:50;;;;;;;;;;;13.20;99.90;;;;;;4998334;28;20001;-77
2022/12/31 07:21:19;;;;;;;;;;;13.20;99.90;;;;;;4993419;28;20390;-78
2022/12/31 07:23:45;;;;;;;;;;;13.20;99.90;;;;;;4996298;28;19929;-77
2022/12/31 07:26:18;;;;;;;;;;;13.30;99.90;;;;;;5000628;28;19933;-77
2022/12/31 07:28:50;;;;;;;;;;;13.20;99.90;;;;;;4998191;28;20039;-78
2022/12/31 07:31:22;;;;;;;;;;;13.30;99.90;;;;;;4999785;28;19929;-78
2022/12/31 07:33:56;;;;;;;;;;;13.30;99.90;;;;;;4998076;28;19940;-79
2022/12/31 07:36:29;;;;;;;;;;;13.40;99.90;;;;;;4997900;28;19940;-78
2022/12/31 07:38:58;;;;;;;;;;;13.50;99.50;;;;;;4998119;28;19959;-79
2022/12/31 07:41:34;;;;;;;;;;;13.60;99.80;;;;;;4990304;28;19972;-78
2022/12/31 07:44:04;;;;;;;;;;;13.60;99.90;;;;;;4989443;28;19937;-78
2022/12/31 07:46:33;;;;;;;;;;;13.50;99.90;;;;;;4984563;28;19933;-78
2022/12/31 07:49:00;;;;;;;;;;;13.50;99.90;;;;;;4982366;28;19941;-79
2022/12/31 07:51:26;;;;;;;;;;;13.50;99.90;;;;;;5003349;28;20136;-79
2022/12/31 07:53:53;;;;;;;;;;;13.40;99.90;;;;;;4983772;28;19937;-78
2022/12/31 07:56:20;;;;;;;;;;;13.40;99.90;;;;;;4982009;28;19934;-78
2022/12/31 07:58:52;;;;;;;;;;;13.40;99.90;;;;;;4982637;28;19933;-79
2022/12/31 08:01:26;;;;;;;;;;;13.40;99.90;;;;;;4982448;28;19945;-79
2022/12/31 08:03:55;;;;;;;;;;;13.40;99.90;;;;;;4980499;28;20394;-79
2022/12/31 08:06:27;;;;;;;;;;;13.40;99.90;;;;;;4978297;28;19933;-78
2022/12/31 08:09:02;;;;;;;;;;;13.50;99.90;;;;;;4980140;28;19937;-80
2022/12/31 08:11:32;;;;;;;;;;;13.50;99.90;;;;;;4982470;28;20033;-79
2022/12/31 08:14:00;;;;;;;;;;;13.60;99.90;;;;;;4988656;28;19937;-78
2022/12/31 08:16:28;;;;;;;;;;;13.60;99.90;;;;;;4978521;28;19991;-79
2022/12/31 08:18:55;;;;;;;;;;;13.70;99.90;;;;;;4987228;28;19951;-80
2022/12/31 08:21:26;;;;;;;;;;;13.70;99.90;;;;;;4985235;28;19933;-79
2022/12/31 08:23:56;;;;;;;;;;;13.70;99.90;;;;;;4980006;28;20815;-80
2022/12/31 08:26:27;;;;;;;;;;;13.70;99.90;;;;;;4983956;28;19933;-78
2022/12/31 08:28:56;;;;;;;;;;;13.70;99.90;;;;;;4983957;28;19934;-79
2022/12/31 08:31:27;;;;;;;;;;;13.80;99.90;;;;;;4996886;28;20578;-79
2022/12/31 08:33:59;;;;;;;;;;;13.70;99.90;;;;;;4997255;28;19933;-79
2022/12/31 08:36:29;;;;;;;;;;;13.80;99.90;;;;;;4993303;28;19933;-78
2022/12/31 08:38:57;;;;;;;;;;;13.80;99.90;;;;;;4998856;28;19929;-78
2022/12/31 08:41:27;;;;;;;;;;;13.80;99.90;;;;;;4993214;28;19929;-78
2022/12/31 08:43:59;;;;;;;;;;;13.80;99.90;;;;;;4993385;28;19980;-78
2022/12/31 08:46:27;;;;;;;;;;;13.80;99.90;;;;;;4985862;28;20832;-79
2022/12/31 08:48:56;;;;;;;;;;;13.90;99.90;;;;;;4987723;28;19941;-78
2022/12/31 08:51:23;;;;;;;;;;;13.90;99.90;;;;;;4980739;28;19933;-79
2022/12/31 08:53:50;;;;;;;;;;;13.90;99.90;;;;;;4980527;28;20171;-79
2022/12/31 08:56:23;;;;;;;;;;;13.90;99.90;;;;;;4981451;28;20778;-79
2022/12/31 08:58:53;;;;;;;;;;;14.00;99.90;;;;;;4988299;28;19934;-77
2022/12/31 09:01:23;;;;;;;;;;;13.90;99.90;;;;;;4984291;28;19929;-79
2022/12/31 09:03:56;;;;;;;;;;;13.90;99.90;;;;;;4994543;28;19991;-78
2022/12/31 09:06:27;;;;;;;;;;;14.00;99.90;;;;;;4993890;28;19929;-79
2022/12/31 09:08:57;;;;;;;;;;;14.00;99.90;;;;;;4993819;28;20005;-79
2022/12/31 09:11:27;;;;;;;;;;;14.00;99.90;;;;;;4990586;28;19930;-79
2022/12/31 09:14:01;;;;;;;;;;;14.00;99.90;;;;;;4987549;28;20027;-79
2022/12/31 09:16:31;;;;;;;;;;;14.00;99.90;;;;;;4986788;28;19934;-79
2022/12/31 09:18:57;;;;;;;;;;;14.10;99.90;;;;;;4995963;28;20592;-78
2022/12/31 09:21:25;;;;;;;;;;;14.10;99.90;;;;;;4991847;28;19960;-79
2022/12/31 09:23:52;;;;;;;;;;;14.10;99.90;;;;;;4992293;28;19937;-79
2022/12/31 09:26:29;;;;;;;;;;;14.10;99.90;;;;;;4994468;28;19930;-79
2022/12/31 09:29:00;;;;;;;;;;;14.10;99.90;;;;;;4993073;28;20090;-79
2022/12/31 09:31:31;;;;;;;;;;;14.10;99.90;;;;;;4983047;28;20884;-79
2022/12/31 09:34:01;;;;;;;;;;;14.10;99.80;;;;;;4991105;28;19933;-78
2022/12/31 09:36:30;;;;;;;;;;;14.10;99.60;;;;;;4988784;28;20622;-78
2022/12/31 09:39:00;;;;;;;;;;;14.20;99.60;;;;;;5002676;28;19953;-79
2022/12/31 09:41:40;;;;;;;;;;;14.20;99.50;;;;;;5000035;28;19936;-79
2022/12/31 09:44:37;;;;;;;;;;;14.20;99.40;;;;;;5006020;28;19929;-78
2022/12/31 09:47:19;;;;;;;;;;;14.20;99.00;;;;;;5002366;28;19941;-79
2022/12/31 09:50:00;;;;;;;;;;;14.20;98.90;;;;;;5000423;28;19940;-78
2022/12/31 09:52:32;;;;;;;;;;;14.20;99.10;;;;;;5000937;28;19937;-79
2022/12/31 09:55:08;;;;;;;;;;;14.20;99.00;;;;;;5005993;28;20390;-79
2022/12/31 09:57:39;;;;;;;;;;;14.30;98.90;;;;;;4996447;28;19929;-78
2022/12/31 10:00:10;;;;;;;;;;;14.30;98.80;;;;;;5004602;28;20028;-78
2022/12/31 10:02:45;;;;;;;;;;;14.30;98.90;;;;;;4999284;28;19964;-78
2022/12/31 10:05:27;;;;;;;;;;;14.30;98.90;;;;;;5002501;28;20715;-78
2022/12/31 10:08:00;;;;;;;;;;;14.30;98.80;;;;;;5007051;28;20712;-78
2022/12/31 10:10:30;;;;;;;;;;;14.40;98.60;;;;;;5003857;28;19937;-78
2022/12/31 10:13:11;;;;;;;;;;;14.40;98.70;;;;;;5004132;28;20488;-78
2022/12/31 10:15:54;;;;;;;;;;;14.40;98.60;;;;;;4997982;28;19929;-78
2022/12/31 10:18:29;;;;;;;;;;;14.40;98.80;;;;;;4998880;28;19939;-77
2022/12/31 10:21:02;;;;;;;;;;;14.40;98.80;;;;;;5001943;28;19929;-77
2022/12/31 10:23:43;;;;;;;;;;;14.50;98.90;;;;;;5002928;28;19942;-78
2022/12/31 10:26:26;;;;;;;;;;;14.50;98.90;;;;;;5000693;28;19989;-77
2022/12/31 10:28:54;;;;;;;;;;;14.50;98.80;;;;;;4997626;28;19938;-78
2022/12/31 10:31:33;;;;;;;;;;;14.50;98.30;;;;;;5000432;28;19929;-77
2022/12/31 10:34:06;;;;;;;;;;;14.50;98.20;;;;;;4996568;28;19936;-78
2022/12/31 10:36:46;;;;;;;;;;;14.50;98.10;;;;;;4998817;28;19935;-78
2022/12/31 10:39:19;;;;;;;;;;;14.50;97.90;;;;;;5002848;28;19930;-77
2022/12/31 10:42:13;;;;;;;;;;;14.50;97.90;;;;;;4998789;28;19929;-78
2022/12/31 10:44:51;;;;;;;;;;;14.50;97.80;;;;;;4982163;28;19929;-79
2022/12/31 10:47:33;;;;;;;;;;;14.60;97.20;;;;;;4981828;28;19992;-79
2022/12/31 10:50:15;;;;;;;;;;;14.60;97.10;;;;;;4988705;28;19961;-78
2022/12/31 10:53:10;;;;;;;;;;;14.60;97.00;;;;;;4997149;28;19933;-77
2022/12/31 10:55:48;;;;;;;;;;;14.60;97.10;;;;;;4996626;28;19929;-77
2022/12/31 10:58:40;;;;;;;;;;;14.70;97.30;;;;;;4994359;28;19934;-77
2022/12/31 11:01:11;;;;;;;;;;;14.70;97.40;;;;;;4986220;28;19933;-77
2022/12/31 11:03:47;;;;;;;;;;;14.70;96.70;;;;;;4990108;28;20433;-77
2022/12/31 11:06:26;;;;;;;;;;;14.70;96.60;;;;;;4995281;28;20225;-77
2022/12/31 11:08:59;;;;;;;;;;;14.80;97.00;;;;;;4996629;28;20450;-77
2022/12/31 11:11:31;;;;;;;;;;;14.80;96.80;;;;;;5002979;28;20306;-77
2022/12/31 11:14:06;;;;;;;;;;;14.80;96.40;;;;;;4999481;28;19940;-78
2022/12/31 11:16:37;;;;;;;;;;;14.80;96.60;;;;;;4990193;28;19929;-77
2022/12/31 11:19:10;;;;;;;;;;;14.80;96.80;;;;;;4994617;28;19930;-78
2022/12/31 11:21:42;;;;;;;;;;;14.80;96.70;;;;;;4982583;28;19930;-78
2022/12/31 11:24:13;;;;;;;;;;;14.80;96.60;;;;;;4987702;28;19929;-78
2022/12/31 11:26:48;;;;;;;;;;;14.90;96.80;;;;;;4986184;28;19930;-78
2022/12/31 11:29:22;;;;;;;;;;;14.90;96.80;;;;;;4991935;28;19941;-77
2022/12/31 11:31:56;;;;;;;;;;;14.90;96.20;;;;;;4991937;28;19972;-77
2022/12/31 11:34:41;;;;;;;;;;;14.90;96.60;;;;;;4999486;28;19929;-78
2022/12/31 11:37:17;;;;;;;;;;;15.00;96.70;;;;;;4999660;28;19956;-78
2022/12/31 11:39:49;;;;;;;;;;;14.90;95.90;;;;;;5001482;28;19929;-77
2022/12/31 11:42:20;;;;;;;;;;;15.00;96.20;;;;;;4998538;28;19970;-77
2022/12/31 11:44:50;;;;;;;;;;;15.00;96.30;;;;;;5002636;28;19986;-79
2022/12/31 11:47:25;;;;;;;;;;;15.00;95.70;;;;;;4995209;28;19930;-79
2022/12/31 11:50:00;;;;;;;;;;;15.00;95.80;;;;;;4998985;28;19929;-78
2022/12/31 11:52:42;;;;;;;;;;;15.10;95.90;;;;;;5008363;28;19929;-79
2022/12/31 11:55:22;;;;;;;;;;;15.10;96.00;;;;;;5013287;28;20388;-77
2022/12/31 11:57:51;;;;;;;;;;;15.10;96.00;;;;;;5007931;28;19963;-77
2022/12/31 12:00:19;;;;;;;;;;;15.10;95.80;;;;;;5010435;28;20511;-79
2022/12/31 12:02:47;;;;;;;;;;;15.20;95.70;;;;;;5010956;28;19960;-79
2022/12/31 12:05:15;;;;;;;;;;;15.10;95.80;;;;;;5006363;28;19925;-80
2022/12/31 12:07:42;;;;;;;;;;;15.20;95.90;;;;;;5016399;28;20090;-79
2022/12/31 12:10:16;;;;;;;;;;;15.20;95.90;;;;;;5013910;28;19913;-77
2022/12/31 12:12:43;;;;;;;;;;;15.20;95.90;;;;;;5003040;28;19940;-78
2022/12/31 12:15:16;;;;;;;;;;;15.20;95.80;;;;;;5001721;28;20032;-79
2022/12/31 12:17:43;;;;;;;;;;;15.20;95.70;;;;;;4999196;28;19933;-79
2022/12/31 12:20:15;;;;;;;;;;;15.30;95.90;;;;;;4994213;28;19936;-79
2022/12/31 12:22:48;;;;;;;;;;;15.30;96.00;;;;;;4995499;28;19929;-79
2022/12/31 12:25:16;;;;;;;;;;;15.30;95.70;;;;;;4990446;28;19929;-78
2022/12/31 12:27:43;;;;;;;;;;;15.30;95.40;;;;;;4996990;28;20862;-79
2022/12/31 12:30:17;;;;;;;;;;;15.40;95.00;;;;;;4998417;28;19929;-79
2022/12/31 12:32:50;;;;;;;;;;;15.40;94.60;;;;;;4992280;28;19937;-79
2022/12/31 12:35:23;;;;;;;;;;;15.40;94.50;;;;;;4996868;28;19968;-79
2022/12/31 12:37:57;;;;;;;;;;;15.40;93.70;;;;;;4989037;28;19984;-78
2022/12/31 12:40:24;;;;;;;;;;;15.50;94.00;;;;;;4998693;28;19930;-79
2022/12/31 12:42:51;;;;;;;;;;;15.50;94.30;;;;;;4993311;28;19929;-79
2022/12/31 12:45:20;;;;;;;;;;;15.50;94.60;;;;;;5006482;28;20409;-79
2022/12/31 12:47:48;;;;;;;;;;;15.50;94.60;;;;;;4991965;28;19938;-79
2022/12/31 12:50:16;;;;;;;;;;;15.60;94.70;;;;;;4996626;28;19936;-78
2022/12/31 12:52:53;;;;;;;;;;;15.60;94.50;;;;;;4999913;28;19997;-79
2022/12/31 12:55:23;;;;;;;;;;;15.60;94.10;;;;;;5000096;28;19980;-78
2022/12/31 12:57:53;;;;;;;;;;;15.60;94.00;;;;;;4998546;28;19933;-78
2022/12/31 13:00:21;;;;;;;;;;;15.60;93.50;;;;;;5000598;28;20016;-79
2022/12/31 13:03:00;;;;;;;;;;;15.60;93.90;;;;;;4995636;28;19995;-78
2022/12/31 13:05:30;;;;;;;;;;;15.60;94.10;;;;;;4993819;28;19960;-79
2022/12/31 13:07:59;;;;;;;;;;;15.60;93.70;;;;;;5003042;28;20452;-79
2022/12/31 13:10:32;;;;;;;;;;;15.70;93.90;;;;;;5001579;28;19975;-79
2022/12/31 13:13:02;;;;;;;;;;;15.70;94.00;;;;;;4999977;28;19934;-79
2022/12/31 13:15:33;;;;;;;;;;;15.70;94.20;;;;;;4996689;28;19940;-79
2022/12/31 13:18:04;;;;;;;;;;;15.70;94.10;;;;;;4992184;28;20397;-79
2022/12/31 13:20:34;;;;;;;;;;;15.60;94.00;;;;;;4993379;28;21230;-78
2022/12/31 13:23:03;;;;;;;;;;;15.70;94.00;;;;;;4999498;28;19979;-79
2022/12/31 13:25:33;;;;;;;;;;;15.70;93.30;;;;;;4995684;28;20275;-80
2022/12/31 13:28:02;;;;;;;;;;;15.70;93.30;;;;;;5000012;28;19937;-78
2022/12/31 13:30:31;;;;;;;;;;;15.70;93.40;;;;;;4995836;28;20291;-79
2022/12/31 13:33:00;;;;;;;;;;;15.80;93.70;;;;;;4991840;28;20313;-79
2022/12/31 13:35:29;;;;;;;;;;;15.70;93.90;;;;;;4995105;28;19936;-79
2022/12/31 13:37:59;;;;;;;;;;;15.80;93.80;;;;;;5000311;28;19941;-79
2022/12/31 13:40:29;;;;;;;;;;;15.70;93.80;;;;;;4995344;28;19930;-79
2022/12/31 13:43:00;;;;;;;;;;;15.80;93.40;;;;;;4998692;28;21285;-79
2022/12/31 13:45:27;;;;;;;;;;;15.80;93.50;;;;;;4993607;28;19937;-79
2022/12/31 13:47:58;;;;;;;;;;;15.80;93.70;;;;;;4986909;28;19933;-78
2022/12/31 13:50:27;;;;;;;;;;;15.80;93.70;;;;;;4984694;28;19934;-78
2022/12/31 13:52:56;;;;;;;;;;;15.80;93.60;;;;;;4994217;28;19933;-78
2022/12/31 13:55:24;;;;;;;;;;;15.80;93.50;;;;;;4994550;28;19963;-79
2022/12/31 13:57:52;;;;;;;;;;;15.80;93.50;;;;;;4993189;28;19929;-79
2022/12/31 14:00:21;;;;;;;;;;;15.80;93.60;;;;;;4989586;28;19930;-79
2022/12/31 14:02:54;;;;;;;;;;;15.80;93.80;;;;;;4984439;28;19934;-78
2022/12/31 14:05:26;;;;;;;;;;;15.80;93.30;;;;;;4993252;28;19933;-79
2022/12/31 14:07:54;;;;;;;;;;;15.80;93.50;;;;;;4988270;28;19933;-78
2022/12/31 14:10:25;;;;;;;;;;;15.80;93.70;;;;;;4995739;28;20411;-78
2022/12/31 14:12:56;;;;;;;;;;;15.80;93.50;;;;;;4993444;28;19929;-79
2022/12/31 14:15:24;;;;;;;;;;;15.80;93.70;;;;;;4990169;28;20749;-79
2022/12/31 14:17:57;;;;;;;;;;;15.90;93.80;;;;;;4985868;28;19979;-79
2022/12/31 14:20:28;;;;;;;;;;;15.80;93.60;;;;;;4993247;28;19929;-79
2022/12/31 14:22:58;;;;;;;;;;;15.90;93.50;;;;;;4997160;28;20027;-79
2022/12/31 14:25:27;;;;;;;;;;;15.80;93.10;;;;;;4995591;28;19939;-79
2022/12/31 14:27:55;;;;;;;;;;;15.80;93.00;;;;;;4996729;28;19929;-79
2022/12/31 14:30:22;;;;;;;;;;;15.80;92.80;;;;;;4984770;28;20112;-79
2022/12/31 14:33:01;;;;;;;;;;;15.80;93.00;;;;;;4994914;28;19995;-78
2022/12/31 14:35:52;;;;;;;;;;;15.80;93.20;;;;;;4996480;28;19930;-80
2022/12/31 14:38:24;;;;;;;;;;;15.80;93.10;;;;;;4993725;28;19933;-79
2022/12/31 14:40:56;;;;;;;;;;;15.80;93.30;;;;;;4993081;28;19929;-78
2022/12/31 14:43:28;;;;;;;;;;;15.80;93.20;;;;;;4990765;28;19944;-80
2022/12/31 14:46:01;;;;;;;;;;;15.80;93.20;;;;;;4986056;28;19933;-79